KTCC

Tucumcari Municipal Airport

Tucumcari, New Mexico, USA
KTCC 180758Z 1808/1906 09005KT 6SM -RA BR OVC030 FM181000 09005KT 2SM -RA BR OVC009 FM181700 13006KT 5SM -DZ BR OVC015 FM190300 23008KT 6SM BR BKN015
Issued Valid From Valid To
Oct-18 @ 07:58 UTC
(4 hours ago)
Oct-18 @ 08:00 UTC
(4 hours ago)
Oct-19 @ 06:00 UTC
(in 18 hours)
Expired Click to View Oct-18 @ 08:00 to Oct-18 @ 10:00
KTCC 180758Z 1808/1906 09005KT 6SM -RA BR OVC030
Wind Visibility Clouds Conditions
90° at 5 knots 6 miles
  • Overcast at 3,000' AGL
  • Light Rain
  • Mist
From Oct-18 @ 10:00 to Oct-18 @ 17:00
FM181000 09005KT 2SM -RA BR OVC009
Wind Visibility Clouds Conditions
90° at 5 knots 2 miles
  • Overcast at 900' AGL
  • Light Rain
  • Mist
From Oct-18 @ 17:00 to Oct-19 @ 03:00
FM181700 13006KT 5SM -DZ BR OVC015
Wind Visibility Clouds Conditions
130° at 6 knots 5 miles
  • Overcast at 1,500' AGL
  • Light Drizzle
  • Mist
From Oct-19 @ 03:00 to Oct-19 @ 06:00
FM190300 23008KT 6SM BR BKN015
Wind Visibility Clouds Conditions
230° at 8 knots 6 miles
  • Broken at 1,500' AGL
  • Mist
KTCC 180758Z 1808/1906 09005KT 6SM -RA BR OVC030 FM181000 09005KT 2SM -RA BR OVC009 FM181700 13006KT 5SM -DZ BR OVC015 FM190300 23008KT 6SM BR BKN015
Issued Oct-18 @ 07:58 UTC
(4 hours ago)
Valid From Oct-18 @ 08:00 UTC
(4 hours ago)
Valid To Oct-19 @ 06:00 UTC
(in 18 hours)
Oct-18 @ 08:00 - Oct-18 @ 10:00
Wind Visibility
90° at 5 knots 6 miles
Clouds
  • Overcast at 3,000' AGL
Conditions
  • Light Rain
  • Mist
From Oct-18 @ 10:00 - Oct-18 @ 17:00
Wind Visibility
90° at 5 knots 2 miles
Clouds
  • Overcast at 900' AGL
Conditions
  • Light Rain
  • Mist
From Oct-18 @ 17:00 - Oct-19 @ 03:00
Wind Visibility
130° at 6 knots 5 miles
Clouds
  • Overcast at 1,500' AGL
Conditions
  • Light Drizzle
  • Mist
From Oct-19 @ 03:00 - Oct-19 @ 06:00
Wind Visibility
230° at 8 knots 6 miles
Clouds
  • Broken at 1,500' AGL
Conditions
  • Mist